Time;durP1;ratioP1;P1;durP2;ratioP2;P2;SDS_P1;SDS_P2;PMS_P1;PMS_P2;Temp;Humidity;BMP_temperature;BMP_pressure;BME280_temperature;BME280_humidity;BME280_pressure;Samples;Min_cycle;Max_cycle;Signal;HPM_P1;HPM_P2
2023/04/09 00:01:18;;;;;;;0.00;0.00;;;6.40;99.90;;;;;;4974203;28;20058;-77
2023/04/09 00:03:43;;;;;;;0.10;0.10;;;6.50;99.90;;;;;;4972338;28;20030;-76
2023/04/09 00:06:12;;;;;;;0.00;0.00;;;6.50;99.90;;;;;;4971193;28;20058;-77
2023/04/09 00:08:39;;;;;;;0.00;0.00;;;4.10;99.90;;;;;;4965228;28;20097;-77
2023/04/09 00:11:06;;;;;;;0.10;0.10;;;6.50;99.90;;;;;;4972805;28;20113;-77
2023/04/09 00:13:34;;;;;;;0.00;0.00;;;6.50;99.90;;;;;;4971955;28;20031;-77
2023/04/09 00:16:00;;;;;;;0.00;0.00;;;6.50;99.90;;;;;;4972046;28;20058;-77
2023/04/09 00:18:29;;;;;;;0.10;0.10;;;6.60;99.90;;;;;;4971856;28;20078;-77
2023/04/09 00:20:54;;;;;;;0.00;0.00;;;5.70;99.90;;;;;;4966688;28;20628;-77
2023/04/09 00:23:21;;;;;;;0.00;0.00;;;6.50;99.90;;;;;;4973143;28;20081;-77
2023/04/09 00:25:48;;;;;;;0.05;0.05;;;6.50;99.90;;;;;;4973857;28;20053;-77
2023/04/09 00:28:15;;;;;;;0.00;0.00;;;6.50;99.90;;;;;;4971769;28;20023;-77
2023/04/09 00:30:41;;;;;;;0.10;0.10;;;6.50;99.90;;;;;;4972559;28;20022;-77
2023/04/09 00:33:11;;;;;;;0.10;0.10;;;6.40;99.90;;;;;;4972145;28;20043;-76
2023/04/09 00:35:37;;;;;;;0.00;0.00;;;6.40;99.90;;;;;;4973929;28;20026;-77
2023/04/09 00:38:03;;;;;;;0.00;0.00;;;;;;;;;;4973000;28;20035;-77
2023/04/09 00:40:31;;;;;;;0.10;0.10;;;6.30;99.90;;;;;;4967715;28;20505;-77
2023/04/09 00:42:58;;;;;;;0.10;0.10;;;6.30;99.90;;;;;;4972358;28;20014;-76
2023/04/09 00:45:25;;;;;;;0.05;0.05;;;6.20;99.90;;;;;;4972461;28;20026;-77
2023/04/09 00:47:52;;;;;;;0.10;0.10;;;6.30;99.90;;;;;;4973152;28;20041;-77
2023/04/09 00:50:18;;;;;;;0.55;0.55;;;;;;;;;;4974387;28;20027;-77
2023/04/09 00:52:44;;;;;;;0.10;0.10;;;6.20;99.90;;;;;;4973584;28;20042;-77
2023/04/09 00:55:12;;;;;;;3.63;3.47;;;6.60;99.90;;;;;;4974054;28;20069;-77
2023/04/09 00:57:38;;;;;;;0.00;0.00;;;6.10;99.90;;;;;;4973255;28;20078;-77
2023/04/09 01:00:06;;;;;;;0.10;0.10;;;6.00;99.90;;;;;;4975565;28;20023;-77
2023/04/09 01:02:36;;;;;;;0.00;0.00;;;6.00;99.90;;;;;;4970913;28;20102;-77
2023/04/09 01:05:05;;;;;;;0.10;0.10;;;6.00;99.90;;;;;;4977634;28;20019;-77
2023/04/09 01:07:37;;;;;;;0.08;0.08;;;6.00;99.90;;;;;;4959020;28;20050;-77
2023/04/09 01:10:42;;;;;;;0.00;0.00;;;6.00;99.90;;;;;;4974983;28;20094;-77
2023/04/09 01:13:17;;;;;;;0.10;0.10;;;6.00;99.90;;;;;;4928623;29;20836;-77
2023/04/09 01:15:57;;;;;;;1.65;1.55;;;6.00;99.90;;;;;;4931691;29;20028;-76
2023/04/09 01:18:23;;;;;;;0.10;0.10;;;5.90;99.90;;;;;;4933996;29;20134;-78
2023/04/09 01:20:57;;;;;;;0.10;0.10;;;5.90;99.90;;;;;;4931231;29;20058;-77
2023/04/09 01:23:52;;;;;;;0.10;0.10;;;5.90;99.90;;;;;;4932769;29;20589;-77
2023/04/09 01:26:45;;;;;;;0.00;0.00;;;5.70;99.90;;;;;;4878621;29;20044;-77
2023/04/09 01:29:14;;;;;;;0.00;0.00;;;5.60;99.90;;;;;;4878279;29;20043;-77
2023/04/09 01:31:42;;;;;;;0.10;0.10;;;5.60;99.90;;;;;;4877098;29;20025;-78
2023/04/09 01:34:10;;;;;;;0.00;0.00;;;5.50;99.90;;;;;;4862855;29;20114;-77
2023/04/09 01:36:39;;;;;;;0.10;0.10;;;5.50;99.90;;;;;;4876246;29;20139;-77
2023/04/09 01:39:07;;;;;;;0.10;0.10;;;;;;;;;;4876857;29;20055;-77
2023/04/09 01:41:35;;;;;;;0.10;0.10;;;5.40;99.90;;;;;;4861196;29;20041;-76
2023/04/09 01:44:03;;;;;;;0.10;0.10;;;5.40;99.90;;;;;;4873507;29;20300;-76
2023/04/09 01:46:30;;;;;;;0.20;0.20;;;5.30;99.90;;;;;;4870869;29;20025;-77
2023/04/09 01:48:56;;;;;;;0.10;0.10;;;5.30;99.90;;;;;;4866843;29;20083;-77
2023/04/09 01:51:26;;;;;;;0.10;0.10;;;4.70;99.90;;;;;;4877185;29;20558;-78
2023/04/09 01:53:56;;;;;;;1.23;1.23;;;5.30;99.90;;;;;;4891548;29;20056;-76
2023/04/09 01:56:23;;;;;;;0.10;0.10;;;5.40;99.90;;;;;;4862741;29;20061;-78
2023/04/09 01:58:49;;;;;;;0.57;0.57;;;;;;;;;;4892110;29;20635;-78
2023/04/09 02:01:23;;;;;;;0.10;0.10;;;5.60;99.90;;;;;;4891931;29;20566;-77
2023/04/09 02:03:57;;;;;;;0.00;0.00;;;5.70;99.90;;;;;;4966897;28;20031;-78
2023/04/09 02:06:52;;;;;;;0.00;0.00;;;5.70;99.90;;;;;;4968388;28;20054;-78
2023/04/09 02:09:30;;;;;;;0.10;0.10;;;5.70;99.90;;;;;;4971925;28;20543;-77
2023/04/09 02:12:01;;;;;;;0.00;0.00;;;5.70;99.90;;;;;;4970375;28;20029;-77
2023/04/09 02:14:31;;;;;;;0.10;0.10;;;5.70;99.90;;;;;;4969122;28;20034;-77
2023/04/09 02:17:00;;;;;;;0.10;0.10;;;5.70;99.90;;;;;;4970832;28;20039;-77
2023/04/09 02:19:40;;;;;;;0.10;0.10;;;5.60;99.90;;;;;;4971653;28;20755;-78
2023/04/09 02:22:07;;;;;;;0.50;0.50;;;5.60;99.90;;;;;;4972412;28;20093;-78
2023/04/09 02:24:33;;;;;;;0.10;0.10;;;5.60;99.90;;;;;;4972380;28;20749;-78
2023/04/09 02:27:13;;;;;;;0.00;0.00;;;5.60;99.90;;;;;;4973762;28;20010;-78
2023/04/09 02:29:41;;;;;;;0.10;0.10;;;5.60;99.90;;;;;;4968571;28;20089;-77
2023/04/09 02:32:08;;;;;;;0.10;0.10;;;5.60;99.90;;;;;;4969061;28;20067;-78
2023/04/09 02:34:34;;;;;;;0.00;0.00;;;5.60;99.90;;;;;;4970195;28;20582;-77
2023/04/09 02:36:59;;;;;;;0.10;0.10;;;5.70;99.90;;;;;;4970822;28;20042;-78
2023/04/09 02:39:26;;;;;;;0.75;0.75;;;;;;;;;;4968649;28;20030;-78
2023/04/09 02:41:52;;;;;;;0.00;0.00;;;5.70;99.90;;;;;;4970732;28;20046;-77
2023/04/09 02:44:19;;;;;;;1.02;1.00;;;5.80;99.90;;;;;;4971417;28;20030;-78
2023/04/09 02:46:47;;;;;;;0.00;0.00;;;5.80;99.90;;;;;;4969594;28;20531;-77
2023/04/09 02:49:13;;;;;;;0.10;0.10;;;;;;;;;;4971723;28;20031;-76
2023/04/09 02:51:40;;;;;;;0.10;0.10;;;5.80;99.90;;;;;;4969371;28;20027;-78
2023/04/09 02:54:09;;;;;;;0.10;0.10;;;;;;;;;;4966994;28;20034;-78
2023/04/09 02:56:34;;;;;;;0.10;0.10;;;5.70;99.90;;;;;;4968374;28;20126;-77
2023/04/09 02:59:00;;;;;;;0.00;0.00;;;5.70;99.90;;;;;;4972166;28;20046;-77
2023/04/09 03:01:30;;;;;;;0.10;0.10;;;5.80;99.90;;;;;;4969435;28;20038;-77
2023/04/09 03:04:00;;;;;;;0.10;0.10;;;5.80;99.90;;;;;;4968502;28;20035;-77
2023/04/09 03:06:26;;;;;;;0.10;0.10;;;5.90;99.90;;;;;;4969633;28;20054;-77
2023/04/09 03:08:53;;;;;;;0.10;0.10;;;5.90;99.90;;;;;;4969280;28;20662;-77
2023/04/09 03:11:20;;;;;;;0.10;0.10;;;5.90;99.90;;;;;;4969018;28;20019;-77
2023/04/09 03:13:46;;;;;;;0.00;0.00;;;6.00;99.90;;;;;;4969706;28;20035;-77
2023/04/09 03:16:12;;;;;;;0.10;0.10;;;5.80;99.90;;;;;;4968458;28;20118;-77
2023/04/09 03:18:38;;;;;;;0.10;0.10;;;6.00;99.90;;;;;;4968223;28;20077;-76
2023/04/09 03:21:07;;;;;;;0.10;0.10;;;6.10;99.90;;;;;;4967363;28;20065;-77
2023/04/09 03:23:34;;;;;;;0.10;0.10;;;6.00;99.90;;;;;;4965564;28;20027;-77
2023/04/09 03:26:04;;;;;;;7.22;3.50;;;6.10;99.90;;;;;;4967895;28;20019;-76
2023/04/09 03:28:31;;;;;;;0.10;0.10;;;6.10;99.90;;;;;;4969006;28;20717;-77
2023/04/09 03:30:57;;;;;;;0.70;0.70;;;6.20;99.90;;;;;;4968676;28;20023;-78
2023/04/09 03:33:24;;;;;;;0.95;0.95;;;6.20;99.90;;;;;;4970599;28;20085;-77
2023/04/09 03:35:51;;;;;;;0.10;0.10;;;6.20;99.90;;;;;;4966592;28;20014;-77
2023/04/09 03:38:18;;;;;;;0.95;0.95;;;6.20;99.90;;;;;;4969395;28;20101;-77
2023/04/09 03:40:45;;;;;;;0.10;0.10;;;6.30;99.90;;;;;;4968090;28;20046;-77
2023/04/09 03:43:11;;;;;;;0.08;0.08;;;6.30;99.90;;;;;;4968591;28;20031;-77
2023/04/09 03:45:38;;;;;;;0.00;0.00;;;6.30;99.90;;;;;;4967122;28;20033;-78
2023/04/09 03:48:05;;;;;;;0.10;0.10;;;6.20;99.90;;;;;;4968507;28;20027;-77
2023/04/09 03:50:30;;;;;;;0.05;0.05;;;6.20;99.90;;;;;;4968931;28;20074;-77
2023/04/09 03:52:57;;;;;;;0.00;0.00;;;6.10;99.90;;;;;;4968167;28;20047;-77
2023/04/09 03:55:23;;;;;;;0.10;0.10;;;6.20;99.90;;;;;;4967212;28;20023;-77
2023/04/09 03:57:49;;;;;;;0.10;0.10;;;6.20;99.90;;;;;;4967865;28;20061;-77
2023/04/09 04:00:15;;;;;;;0.10;0.10;;;6.30;99.90;;;;;;4966782;28;20019;-77
2023/04/09 04:02:41;;;;;;;0.00;0.00;;;6.30;99.90;;;;;;4966994;28;20654;-77
2023/04/09 04:05:07;;;;;;;0.10;0.10;;;6.20;99.90;;;;;;4966670;28;20019;-77
2023/04/09 04:07:34;;;;;;;0.10;0.10;;;6.10;99.90;;;;;;4967749;28;20034;-77
2023/04/09 04:10:04;;;;;;;0.10;0.10;;;6.20;99.90;;;;;;4965222;28;20027;-77
2023/04/09 04:12:31;;;;;;;0.00;0.00;;;6.10;99.90;;;;;;4958503;28;20034;-78
2023/04/09 04:14:57;;;;;;;0.00;0.00;;;6.30;99.90;;;;;;4966654;28;20023;-77
2023/04/09 04:17:23;;;;;;;0.00;0.00;;;6.30;99.90;;;;;;4957327;28;20728;-77
2023/04/09 04:19:50;;;;;;;0.00;0.00;;;9.50;99.90;;;;;;4966756;28;20043;-77
2023/04/09 04:22:15;;;;;;;0.05;0.05;;;6.30;99.90;;;;;;4967322;28;20089;-77
2023/04/09 04:24:42;;;;;;;0.10;0.10;;;6.40;99.90;;;;;;4969467;28;20023;-77
2023/04/09 04:27:07;;;;;;;0.03;0.03;;;6.40;99.90;;;;;;4969867;28;20019;-77
2023/04/09 04:29:34;;;;;;;0.00;0.00;;;;;;;;;;4969240;28;20106;-80
2023/04/09 04:32:00;;;;;;;0.00;0.00;;;;;;;;;;4968184;28;20019;-78
2023/04/09 04:34:27;;;;;;;0.00;0.00;;;6.50;99.90;;;;;;4969499;28;20038;-78
2023/04/09 04:36:53;;;;;;;2.40;2.30;;;6.50;99.90;;;;;;4969167;28;20038;-77
2023/04/09 04:39:21;;;;;;;0.10;0.10;;;6.50;99.90;;;;;;4968097;28;20042;-77
2023/04/09 04:42:13;;;;;;;0.10;0.10;;;6.50;99.90;;;;;;4950443;28;20121;-77
2023/04/09 04:44:40;;;;;;;0.10;0.10;;;6.50;99.90;;;;;;4871014;29;20041;-77
2023/04/09 04:47:06;;;;;;;0.00;0.00;;;6.60;99.90;;;;;;4870640;29;20893;-77
2023/04/09 04:49:32;;;;;;;0.00;0.00;;;6.60;99.90;;;;;;4870796;29;20108;-77
2023/04/09 04:52:00;;;;;;;0.00;0.00;;;6.60;99.90;;;;;;4853927;29;20036;-77
2023/04/09 04:54:26;;;;;;;0.00;0.00;;;;;;;;;;4855541;29;20033;-77
2023/04/09 04:56:52;;;;;;;0.10;0.10;;;6.70;99.90;;;;;;4869115;29;20125;-77
2023/04/09 04:59:19;;;;;;;0.00;0.00;;;4.90;99.90;;;;;;4868732;29;20645;-77
2023/04/09 05:01:45;;;;;;;0.03;0.03;;;;;;;;;;4869376;29;20414;-77
2023/04/09 05:04:11;;;;;;;0.00;0.00;;;6.70;99.90;;;;;;4854497;29;20025;-77
2023/04/09 05:06:37;;;;;;;0.00;0.00;;;;;;;;;;4854306;29;20426;-77
2023/04/09 05:09:03;;;;;;;0.00;0.00;;;6.70;99.90;;;;;;4869984;29;20041;-77
2023/04/09 05:11:31;;;;;;;0.10;0.10;;;6.70;99.90;;;;;;4870970;29;20033;-77
2023/04/09 05:13:56;;;;;;;0.03;0.03;;;6.80;99.90;;;;;;4872065;29;20116;-77
2023/04/09 05:16:23;;;;;;;0.10;0.10;;;6.80;99.90;;;;;;4857082;29;20799;-77
2023/04/09 05:18:48;;;;;;;2.55;2.45;;;6.80;99.90;;;;;;4856328;29;20053;-77
2023/04/09 05:21:15;;;;;;;0.00;0.00;;;6.90;99.90;;;;;;4897993;28;20053;-77
2023/04/09 05:23:41;;;;;;;0.00;0.00;;;6.90;99.90;;;;;;4967993;28;20041;-77
2023/04/09 05:26:07;;;;;;;0.30;0.30;;;6.90;99.90;;;;;;4968375;28;20029;-76
2023/04/09 05:28:33;;;;;;;0.52;0.52;;;6.80;99.90;;;;;;4968077;28;20031;-76
2023/04/09 05:30:59;;;;;;;0.10;0.10;;;6.90;99.90;;;;;;4951653;28;20038;-77
2023/04/09 05:33:25;;;;;;;0.00;0.00;;;6.80;99.90;;;;;;4950759;28;20705;-77
2023/04/09 05:35:51;;;;;;;0.00;0.00;;;;;;;;;;4970705;28;20026;-77
2023/04/09 05:38:17;;;;;;;0.20;0.20;;;6.80;99.90;;;;;;4970055;28;20043;-76
2023/04/09 05:40:44;;;;;;;2.58;2.38;;;6.90;99.90;;;;;;4970378;28;20038;-77
2023/04/09 05:43:10;;;;;;;0.10;0.10;;;;;;;;;;4971278;28;20085;-77
2023/04/09 05:45:40;;;;;;;0.00;0.00;;;;;;;;;;4972983;28;20051;-77
2023/04/09 05:48:07;;;;;;;0.35;0.35;;;7.00;99.90;;;;;;4972467;28;20034;-77
2023/04/09 05:50:33;;;;;;;0.00;0.00;;;7.10;99.90;;;;;;4974021;28;20050;-77
2023/04/09 05:52:59;;;;;;;0.00;0.00;;;7.00;99.90;;;;;;4973737;28;20027;-77
2023/04/09 05:55:31;;;;;;;0.00;0.00;;;7.00;99.90;;;;;;4976739;28;20093;-77
2023/04/09 05:57:59;;;;;;;0.00;0.00;;;7.10;99.90;;;;;;4977477;28;20094;-77
2023/04/09 06:00:25;;;;;;;0.32;0.32;;;7.10;99.90;;;;;;4958762;28;20015;-77
2023/04/09 06:02:52;;;;;;;1.13;1.13;;;7.10;99.90;;;;;;4974982;28;20042;-77
2023/04/09 06:05:18;;;;;;;0.00;0.00;;;7.10;99.90;;;;;;4976253;28;20030;-77
2023/04/09 06:07:43;;;;;;;0.10;0.10;;;7.10;99.90;;;;;;4957460;28;20178;-78
2023/04/09 06:10:09;;;;;;;0.47;0.47;;;;;;;;;;4973328;28;20082;-77
2023/04/09 06:12:35;;;;;;;0.00;0.00;;;7.20;99.90;;;;;;4954017;28;20041;-77
2023/04/09 06:15:01;;;;;;;0.10;0.10;;;7.20;99.90;;;;;;4970649;28;20110;-77
2023/04/09 06:17:28;;;;;;;0.00;0.00;;;7.20;99.90;;;;;;4970580;28;20041;-77
2023/04/09 06:19:54;;;;;;;0.10;0.10;;;7.70;99.90;;;;;;4951086;28;20047;-77
2023/04/09 06:22:20;;;;;;;0.10;0.10;;;7.20;99.90;;;;;;4949930;28;20058;-77
2023/04/09 06:24:45;;;;;;;0.00;0.00;;;7.30;99.90;;;;;;4948700;28;20027;-76
2023/04/09 06:27:14;;;;;;;0.10;0.10;;;7.30;99.90;;;;;;4964348;28;20022;-77
2023/04/09 06:29:40;;;;;;;0.40;0.40;;;;;;;;;;4965516;28;20588;-77
2023/04/09 06:32:06;;;;;;;0.13;0.13;;;7.40;99.90;;;;;;4957494;28;20117;-77
2023/04/09 06:34:31;;;;;;;0.05;0.05;;;7.40;99.90;;;;;;4969180;28;20045;-77
2023/04/09 06:36:57;;;;;;;0.03;0.03;;;7.90;99.90;;;;;;4951720;28;20049;-77
2023/04/09 06:39:23;;;;;;;0.00;0.00;;;7.50;99.90;;;;;;4969780;28;20228;-77
2023/04/09 06:41:49;;;;;;;0.22;0.22;;;4.70;99.90;;;;;;4969969;28;20051;-77
2023/04/09 06:44:18;;;;;;;0.00;0.00;;;7.60;99.90;;;;;;4971569;28;20039;-77
2023/04/09 06:46:45;;;;;;;0.08;0.08;;;7.70;99.90;;;;;;4953627;28;20771;-77
2023/04/09 06:49:11;;;;;;;0.00;0.00;;;7.60;99.90;;;;;;4970353;28;20019;-76
2023/04/09 06:51:40;;;;;;;0.00;0.00;;;7.60;99.90;;;;;;4970522;28;20073;-77
2023/04/09 06:54:09;;;;;;;0.03;0.03;;;7.70;99.90;;;;;;4953650;28;20039;-78
2023/04/09 06:56:42;;;;;;;0.08;0.08;;;;;;;;;;4969330;28;20031;-76
2023/04/09 06:59:11;;;;;;;1.13;1.08;;;7.80;99.90;;;;;;4972025;28;20787;-78
2023/04/09 07:01:37;;;;;;;0.00;0.00;;;7.80;99.90;;;;;;4954834;28;20025;-77
2023/04/09 07:04:04;;;;;;;0.25;0.25;;;;;;;;;;4974565;28;20057;-78
2023/04/09 07:06:30;;;;;;;0.30;0.30;;;7.80;99.90;;;;;;4973749;28;20106;-78
2023/04/09 07:08:57;;;;;;;0.10;0.10;;;;;;;;;;4976703;28;20035;-77
2023/04/09 07:11:23;;;;;;;0.10;0.10;;;;;;;;;;4977251;28;20042;-77
2023/04/09 07:13:49;;;;;;;0.32;0.32;;;8.00;99.90;;;;;;4976754;28;20038;-78
2023/04/09 07:16:16;;;;;;;0.00;0.00;;;8.00;99.90;;;;;;4976964;28;20715;-77
2023/04/09 07:18:42;;;;;;;0.10;0.10;;;8.20;99.90;;;;;;4957754;28;20074;-77
2023/04/09 07:21:10;;;;;;;0.08;0.08;;;8.20;99.90;;;;;;4975626;28;20027;-79
2023/04/09 07:23:37;;;;;;;0.10;0.10;;;8.40;99.90;;;;;;4956634;28;20034;-77
2023/04/09 07:26:04;;;;;;;0.10;0.10;;;8.50;99.90;;;;;;4950173;28;20027;-77
2023/04/09 07:28:32;;;;;;;0.10;0.10;;;8.50;99.90;;;;;;4969090;28;20035;-77
2023/04/09 07:31:01;;;;;;;0.10;0.10;;;8.50;99.90;;;;;;4948658;28;20594;-76
2023/04/09 07:33:27;;;;;;;0.00;0.00;;;8.60;99.90;;;;;;4966218;28;20057;-76
2023/04/09 07:35:53;;;;;;;0.10;0.10;;;7.00;99.90;;;;;;4950886;28;20691;-77
2023/04/09 07:38:19;;;;;;;0.10;0.10;;;8.70;99.90;;;;;;4948951;28;20053;-76
2023/04/09 07:40:45;;;;;;;0.70;0.70;;;8.70;99.90;;;;;;4969371;28;20019;-77
2023/04/09 07:43:10;;;;;;;0.20;0.20;;;8.80;99.90;;;;;;4965537;28;20509;-76
2023/04/09 07:45:39;;;;;;;0.10;0.10;;;8.80;99.90;;;;;;4967521;28;20038;-80
2023/04/09 07:48:08;;;;;;;0.10;0.10;;;8.90;99.90;;;;;;4968234;28;20023;-76
2023/04/09 07:50:33;;;;;;;0.10;0.10;;;8.90;99.90;;;;;;4969500;28;20030;-77
2023/04/09 07:52:59;;;;;;;0.10;0.10;;;8.80;99.90;;;;;;4972252;28;20035;-76
2023/04/09 07:55:25;;;;;;;1.75;1.75;;;8.90;99.90;;;;;;4953794;28;20038;-77
2023/04/09 07:57:54;;;;;;;0.65;0.65;;;9.00;99.90;;;;;;4967855;28;20062;-77
2023/04/09 08:00:20;;;;;;;0.10;0.10;;;7.00;99.90;;;;;;4967571;28;20035;-76
2023/04/09 08:02:46;;;;;;;1.02;1.00;;;9.10;99.90;;;;;;4967655;28;20770;-77
2023/04/09 08:05:12;;;;;;;0.20;0.20;;;6.50;99.90;;;;;;4966765;28;20102;-76
2023/04/09 08:07:38;;;;;;;0.10;0.10;;;8.80;99.90;;;;;;4968232;28;20026;-76
2023/04/09 08:10:05;;;;;;;0.00;0.00;;;8.80;99.90;;;;;;4969147;28;20081;-77
2023/04/09 08:12:32;;;;;;;0.98;0.90;;;8.80;99.90;;;;;;4951284;28;20466;-77
2023/04/09 08:15:02;;;;;;;0.10;0.10;;;8.90;99.90;;;;;;4967460;28;20022;-77
2023/04/09 08:17:29;;;;;;;0.10;0.10;;;8.30;99.90;;;;;;4931735;28;20039;-77
2023/04/09 08:19:55;;;;;;;0.10;0.10;;;9.00;99.90;;;;;;4947869;28;20043;-77
2023/04/09 08:22:23;;;;;;;0.08;0.08;;;9.00;99.90;;;;;;4948043;28;20026;-78
2023/04/09 08:24:57;;;;;;;0.10;0.10;;;9.10;99.90;;;;;;4966191;28;20670;-78
2023/04/09 08:27:29;;;;;;;0.10;0.10;;;9.20;99.90;;;;;;4941670;28;20537;-77
2023/04/09 08:29:55;;;;;;;0.00;0.00;;;9.30;99.90;;;;;;4922105;28;20039;-78
2023/04/09 08:32:24;;;;;;;0.10;0.10;;;9.40;99.90;;;;;;4970000;28;20031;-78
2023/04/09 08:34:52;;;;;;;0.10;0.10;;;9.30;99.90;;;;;;4971242;28;20027;-78
2023/04/09 08:37:27;;;;;;;0.00;0.00;;;9.30;99.90;;;;;;4970528;28;20042;-77
2023/04/09 08:39:53;;;;;;;0.30;0.30;;;9.30;99.90;;;;;;4954216;28;20122;-77
2023/04/09 08:42:27;;;;;;;0.10;0.10;;;9.30;99.90;;;;;;4952531;28;20057;-78
2023/04/09 08:44:56;;;;;;;0.10;0.10;;;9.20;99.90;;;;;;4952980;28;20098;-78
2023/04/09 08:47:24;;;;;;;0.10;0.10;;;9.20;99.90;;;;;;4972812;28;20023;-77
2023/04/09 08:49:56;;;;;;;0.28;0.28;;;9.30;99.90;;;;;;4953626;28;20026;-78
2023/04/09 08:52:53;;;;;;;0.10;0.10;;;7.40;99.90;;;;;;4971104;28;20031;-78
2023/04/09 08:55:24;;;;;;;0.10;0.10;;;8.70;99.90;;;;;;4954326;28;20027;-78
2023/04/09 08:57:50;;;;;;;0.00;0.00;;;9.10;99.90;;;;;;4950691;28;20030;-77
2023/04/09 09:00:16;;;;;;;0.05;0.05;;;9.40;99.90;;;;;;4949006;28;20433;-77
2023/04/09 09:03:08;;;;;;;6.35;6.03;;;9.60;99.90;;;;;;4950942;28;20118;-77
2023/04/09 09:05:45;;;;;;;0.10;0.10;;;9.50;99.90;;;;;;4952802;28;20082;-77
2023/04/09 09:08:13;;;;;;;0.20;0.20;;;9.50;99.90;;;;;;4950411;28;20541;-76
2023/04/09 09:10:44;;;;;;;0.10;0.10;;;9.60;99.90;;;;;;4974435;28;20578;-76
2023/04/09 09:13:26;;;;;;;0.10;0.10;;;9.60;99.90;;;;;;4972322;28;20042;-78
2023/04/09 09:16:12;;;;;;;0.10;0.10;;;7.40;99.90;;;;;;4969379;28;20019;-77
2023/04/09 09:18:39;;;;;;;0.10;0.10;;;9.70;99.90;;;;;;4970090;28;20051;-77
2023/04/09 09:21:16;;;;;;;0.28;0.28;;;9.80;99.90;;;;;;4950612;28;20664;-77
2023/04/09 09:23:49;;;;;;;0.10;0.10;;;9.80;99.90;;;;;;4952055;28;20698;-77
2023/04/09 09:26:17;;;;;;;0.10;0.10;;;9.80;99.90;;;;;;4953172;28;20022;-75
2023/04/09 09:28:47;;;;;;;0.10;0.10;;;9.70;99.90;;;;;;4972358;28;20027;-75
2023/04/09 09:31:14;;;;;;;0.10;0.10;;;9.70;99.90;;;;;;4968714;28;20019;-76
2023/04/09 09:33:40;;;;;;;0.00;0.00;;;7.90;99.90;;;;;;4969417;28;20814;-77
2023/04/09 09:36:12;;;;;;;0.00;0.00;;;9.60;99.90;;;;;;4968600;28;20672;-78
2023/04/09 09:38:56;;;;;;;0.10;0.10;;;10.90;99.90;;;;;;4951005;28;20027;-78
2023/04/09 09:41:27;;;;;;;0.10;0.10;;;9.50;99.90;;;;;;4970192;28;20465;-77
2023/04/09 09:43:54;;;;;;;0.10;0.10;;;9.50;99.90;;;;;;4973072;28;20075;-77
2023/04/09 09:46:25;;;;;;;0.10;0.10;;;9.80;99.90;;;;;;4973918;28;20059;-76
2023/04/09 09:49:11;;;;;;;0.00;0.00;;;10.00;99.90;;;;;;4952530;28;20058;-77
2023/04/09 09:51:39;;;;;;;0.10;0.10;;;9.60;99.90;;;;;;4951653;28;20039;-76
2023/04/09 09:54:09;;;;;;;0.10;0.10;;;9.50;99.90;;;;;;4952029;28;20031;-78
2023/04/09 09:56:37;;;;;;;0.20;0.20;;;9.60;99.90;;;;;;4952385;28;20122;-78
2023/04/09 09:59:23;;;;;;;1.25;1.25;;;9.50;99.90;;;;;;4952290;28;20026;-76
2023/04/09 10:02:04;;;;;;;0.20;0.20;;;7.70;99.90;;;;;;4954572;28;20659;-78
2023/04/09 10:04:36;;;;;;;0.10;0.10;;;9.70;99.90;;;;;;4972339;28;20084;-78
2023/04/09 10:07:22;;;;;;;0.10;0.10;;;9.70;99.90;;;;;;4975373;28;20057;-76
2023/04/09 10:09:54;;;;;;;0.10;0.10;;;9.50;99.90;;;;;;4973407;28;20023;-75
2023/04/09 10:12:34;;;;;;;0.00;0.00;;;9.40;99.90;;;;;;4958238;28;20014;-79
2023/04/09 10:15:05;;;;;;;0.25;0.25;;;10.20;99.90;;;;;;4959027;28;20675;-80
2023/04/09 10:17:31;;;;;;;0.10;0.10;;;10.90;99.90;;;;;;4955895;28;20031;-78
2023/04/09 10:20:12;;;;;;;0.10;0.10;;;9.90;99.90;;;;;;4961302;28;20588;-79
2023/04/09 10:22:42;;;;;;;0.10;0.10;;;9.80;99.90;;;;;;4960597;28;20146;-78
2023/04/09 10:25:09;;;;;;;0.32;0.32;;;9.20;99.90;;;;;;4965856;28;20114;-79
2023/04/09 10:27:35;;;;;;;0.17;0.17;;;10.10;99.90;;;;;;4962063;28;20022;-80
2023/04/09 10:30:06;;;;;;;0.15;0.15;;;10.50;99.90;;;;;;4974690;28;20026;-79
2023/04/09 10:32:35;;;;;;;0.10;0.10;;;10.40;99.90;;;;;;4952253;28;20658;-78
2023/04/09 10:35:02;;;;;;;1.05;1.05;;;10.80;99.90;;;;;;4952658;28;20121;-79
2023/04/09 10:37:30;;;;;;;0.10;0.10;;;11.00;99.90;;;;;;4949207;28;20053;-78
2023/04/09 10:39:57;;;;;;;0.85;0.85;;;10.90;99.90;;;;;;4971235;28;20030;-77
2023/04/09 10:42:33;;;;;;;0.10;0.10;;;11.70;99.90;;;;;;4948713;28;20015;-78
2023/04/09 10:45:11;;;;;;;0.10;0.10;;;11.60;99.90;;;;;;4965161;28;20019;-76
2023/04/09 10:47:39;;;;;;;6.63;6.20;;;11.40;99.90;;;;;;4946666;28;20054;-78
2023/04/09 10:50:26;;;;;;;0.17;0.17;;;11.40;99.90;;;;;;4947437;28;20031;-77
2023/04/09 10:52:59;;;;;;;0.22;0.22;;;11.20;99.90;;;;;;4948461;28;20039;-77
2023/04/09 10:55:38;;;;;;;0.30;0.30;;;11.10;99.90;;;;;;4947521;28;20081;-77
2023/04/09 10:58:09;;;;;;;0.32;0.32;;;11.10;99.90;;;;;;4966849;28;20038;-77
2023/04/09 11:00:40;;;;;;;0.20;0.20;;;11.10;99.90;;;;;;4949054;28;20268;-77
2023/04/09 11:03:24;;;;;;;2.67;2.58;;;11.00;99.90;;;;;;4964923;28;20031;-77
2023/04/09 11:05:53;;;;;;;0.57;0.57;;;10.90;99.90;;;;;;4948451;28;20513;-77
2023/04/09 11:08:23;;;;;;;0.10;0.10;;;10.80;99.90;;;;;;4964912;28;20027;-77
2023/04/09 11:10:50;;;;;;;0.20;0.20;;;11.00;99.90;;;;;;4963425;28;20042;-77
2023/04/09 11:13:19;;;;;;;0.10;0.10;;;11.10;99.90;;;;;;4964050;28;20114;-77
2023/04/09 11:15:45;;;;;;;0.10;0.10;;;10.90;99.90;;;;;;4947261;28;20094;-77
2023/04/09 11:18:22;;;;;;;0.20;0.20;;;11.00;99.90;;;;;;4963623;28;20045;-77
2023/04/09 11:20:49;;;;;;;4.25;4.05;;;10.80;99.90;;;;;;4960475;28;20695;-77
2023/04/09 11:23:19;;;;;;;0.30;0.30;;;11.10;99.90;;;;;;4931681;29;20109;-75
2023/04/09 11:25:49;;;;;;;0.20;0.20;;;11.30;99.90;;;;;;4946068;29;20027;-76
2023/04/09 11:28:18;;;;;;;0.10;0.10;;;11.00;99.90;;;;;;4945611;29;20027;-75
2023/04/09 11:30:45;;;;;;;0.40;0.40;;;10.90;99.90;;;;;;4932449;29;20050;-76
2023/04/09 11:33:44;;;;;;;3.50;3.30;;;10.60;99.90;;;;;;4950816;29;20096;-78
2023/04/09 11:36:11;;;;;;;0.10;0.10;;;10.40;99.90;;;;;;4853338;29;20250;-77
2023/04/09 11:38:37;;;;;;;0.20;0.20;;;10.30;99.90;;;;;;4856397;29;20109;-76
2023/04/09 11:41:04;;;;;;;0.20;0.20;;;10.20;99.90;;;;;;4830170;29;20044;-76
2023/04/09 11:43:34;;;;;;;0.20;0.20;;;10.20;99.90;;;;;;4844943;29;20068;-77
2023/04/09 11:46:00;;;;;;;0.10;0.10;;;10.10;99.90;;;;;;4836121;29;20140;-77
2023/04/09 11:48:29;;;;;;;0.10;0.10;;;10.10;99.90;;;;;;4851084;29;20105;-75
2023/04/09 11:50:56;;;;;;;0.10;0.10;;;;;;;;;;4833991;29;20026;-78
2023/04/09 11:53:23;;;;;;;2.08;1.98;;;10.40;99.90;;;;;;4840884;29;20049;-77
2023/04/09 11:55:50;;;;;;;6.32;5.97;;;10.60;99.90;;;;;;4833005;29;20025;-78
2023/04/09 11:58:25;;;;;;;0.10;0.10;;;11.00;99.90;;;;;;4847697;29;20049;-78
2023/04/09 12:00:56;;;;;;;0.20;0.20;;;10.40;99.90;;;;;;4833308;29;20025;-75
2023/04/09 12:03:37;;;;;;;0.30;0.30;;;11.50;99.90;;;;;;4848578;29;20093;-77
2023/04/09 12:06:05;;;;;;;0.63;0.63;;;11.90;99.90;;;;;;4850666;29;20041;-75
2023/04/09 12:08:34;;;;;;;0.10;0.10;;;12.20;99.90;;;;;;4832953;29;20025;-75
2023/04/09 12:11:14;;;;;;;0.17;0.17;;;12.10;99.90;;;;;;4846197;29;20484;-76
2023/04/09 12:13:42;;;;;;;0.17;0.17;;;12.40;99.90;;;;;;4916042;29;20036;-73
2023/04/09 12:16:11;;;;;;;0.20;0.20;;;12.40;99.90;;;;;;4941505;29;20031;-76
2023/04/09 12:18:39;;;;;;;0.10;0.10;;;12.40;99.90;;;;;;4943961;28;20047;-74
2023/04/09 12:21:05;;;;;;;0.20;0.20;;;12.20;99.90;;;;;;4961065;28;20667;-73
2023/04/09 12:23:32;;;;;;;0.52;0.52;;;12.00;99.90;;;;;;4966974;28;20037;-74
2023/04/09 12:26:01;;;;;;;1.27;1.27;;;11.80;99.90;;;;;;4947656;28;20049;-73
2023/04/09 12:28:27;;;;;;;0.32;0.32;;;11.80;99.90;;;;;;4963397;28;20027;-74
2023/04/09 12:30:53;;;;;;;0.20;0.20;;;11.80;99.90;;;;;;4966161;28;20030;-74
2023/04/09 12:33:20;;;;;;;0.80;0.80;;;11.50;99.90;;;;;;4964748;28;20033;-73
2023/04/09 12:35:46;;;;;;;0.20;0.20;;;11.40;99.90;;;;;;4952063;28;20031;-73
2023/04/09 12:38:12;;;;;;;6.40;5.88;;;11.20;99.90;;;;;;4947862;28;20039;-73
2023/04/09 12:40:38;;;;;;;0.55;0.55;;;11.10;99.90;;;;;;4966561;28;20145;-73
2023/04/09 12:43:05;;;;;;;0.17;0.17;;;11.00;99.90;;;;;;4951318;28;20113;-73
2023/04/09 12:45:31;;;;;;;0.10;0.10;;;10.90;99.90;;;;;;4950886;28;20035;-74
2023/04/09 12:47:57;;;;;;;0.13;0.13;;;10.70;99.90;;;;;;4969285;28;20722;-74
2023/04/09 12:50:23;;;;;;;0.20;0.20;;;10.70;99.90;;;;;;4971296;28;20015;-75
2023/04/09 12:52:49;;;;;;;0.90;0.90;;;10.50;99.90;;;;;;4951997;28;20042;-74
2023/04/09 12:55:15;;;;;;;0.20;0.20;;;10.40;99.90;;;;;;4967956;28;20015;-74
2023/04/09 12:57:47;;;;;;;0.10;0.10;;;10.50;99.90;;;;;;4950637;28;20031;-75
2023/04/09 13:00:14;;;;;;;0.10;0.10;;;10.50;99.90;;;;;;4951987;28;20619;-73
2023/04/09 13:02:40;;;;;;;0.10;0.10;;;10.50;99.90;;;;;;4972131;28;20031;-73
2023/04/09 13:05:06;;;;;;;0.10;0.10;;;10.10;99.90;;;;;;4971619;28;20742;-74
2023/04/09 13:07:32;;;;;;;0.15;0.15;;;10.10;99.90;;;;;;4958665;28;20029;-77
2023/04/09 13:09:58;;;;;;;0.10;0.10;;;10.00;99.90;;;;;;4970538;28;20039;-74